Randolph Air Force Base
KRND : rendu visible

Aérodrome :











RETROUVEZ-NOUS SUR...

 
LOGIN :

S'inscrire | Disclaimer

   EN    FR    IT 

 









Légende :    VFR   VFR Marginal   IFR   IFR Intensif   IFR Très Intensif
Visi : 
Plafond : 
>= 8 km
>= 3000ft
5 à 8 km
1000 à 3000 ft
1500m à 5 km
500 à 1000 ft
800 à 1500m
200 à 500 ft
< 800m
< 200 ft
Symboles :   Orages  Brouillard  Fortes neiges  Fortes précipitations  Vent > 20 kt






- Altitude de l'aérodrome : 761 ft


KRND - Randolph Air Force Base

DERNIER METAR :
  • 080356Z AUTO 00000KT 10SM CLR 23/18 A2993 RMK AO2 SLP129 T02320181 $

METARs EXPIRÉS :
  • 080256Z AUTO 16003KT 10SM CLR 24/18 A2993 RMK AO2 SLP129 T02400179 52016 $

TAF TAF KRND
Valide du 07 à 16h jusqu'au 08 à 22h UTC


071557Z 0716/0822 20006KT 9000 BR BKN008 OVC250 QNH3001INS
BECMG 0716/0717 21009KT 9999 NSW FEW008 BKN014 BKN250 QNH2995INS
BECMG 0717/0718 20009KT 9999 SCT020 BKN250 QNH2985INS
BECMG 0802/0803 VRB06KT 9000 BR BKN018 BKN250 QNH2990INS
BECMG 0807/0808 VRB06KT 4800 BR OVC002 QNH2988INS
BECMG 0817/0818 21009KT 9999 NSW SCT015 BKN140 BKN250 QNH2991INS TX30/0721Z TN21/0812Z LAST NO AMDS AFT 0721 NEXT 0812



MET'MAP, la Météo Aéronautique d'un coup d'oeil ! - Copyright ORBIFLY Décembre 2007 - Disclaimer

ORBIFLY MET'MAP TEAM :

Programmation & Développement : Alexandra Zaïnal
Sur une idée originale de : Baudouin d'Aumeries
Assistance à la programmation : Marc-Olivier Méhu
Soutien technique & logistique : Manuel Goepfert

Contact : metmap@orbifly.com




SOURCES & CREDITS :

   NOAA       Earth
Advisory